sensor_id;sensor_type;location;lat;lon;timestamp;temperature;humidity
19385;DHT22;9828;54.122;17.974;2022-12-18T00:03:01;-4.20;1.00
19385;DHT22;9828;54.122;17.974;2022-12-18T00:08:23;-4.20;61.50
19385;DHT22;9828;54.122;17.974;2022-12-18T00:13:44;-4.20;1.00
19385;DHT22;9828;54.122;17.974;2022-12-18T00:19:06;-4.20;1.00
19385;DHT22;9828;54.122;17.974;2022-12-18T00:24:27;-4.20;1.00
19385;DHT22;9828;54.122;17.974;2022-12-18T00:29:49;-4.20;1.00
19385;DHT22;9828;54.122;17.974;2022-12-18T00:35:10;-4.20;1.00
19385;DHT22;9828;54.122;17.974;2022-12-18T00:40:33;-4.20;1.00
19385;DHT22;9828;54.122;17.974;2022-12-18T00:45:54;-4.20;1.00
19385;DHT22;9828;54.122;17.974;2022-12-18T00:51:15;-4.20;1.00
19385;DHT22;9828;54.122;17.974;2022-12-18T00:56:37;-4.10;1.00
19385;DHT22;9828;54.122;17.974;2022-12-18T01:02:04;-4.10;1.00
19385;DHT22;9828;54.122;17.974;2022-12-18T01:07:26;-4.10;99.90
19385;DHT22;9828;54.122;17.974;2022-12-18T01:12:48;-4.10;1.00
19385;DHT22;9828;54.122;17.974;2022-12-18T01:18:10;-4.20;99.90
19385;DHT22;9828;54.122;17.974;2022-12-18T01:23:32;-4.30;1.00
19385;DHT22;9828;54.122;17.974;2022-12-18T01:28:55;-4.40;1.00
19385;DHT22;9828;54.122;17.974;2022-12-18T01:34:17;-4.40;1.00
19385;DHT22;9828;54.122;17.974;2022-12-18T01:39:38;-4.40;1.00
19385;DHT22;9828;54.122;17.974;2022-12-18T01:50:40;-4.40;1.00
19385;DHT22;9828;54.122;17.974;2022-12-18T01:56:04;-4.30;1.00
19385;DHT22;9828;54.122;17.974;2022-12-18T02:01:26;-4.30;1.00
19385;DHT22;9828;54.122;17.974;2022-12-18T02:07:01;-4.40;99.90
19385;DHT22;9828;54.122;17.974;2022-12-18T02:12:28;-4.30;81.70
19385;DHT22;9828;54.122;17.974;2022-12-18T02:29:27;-4.00;99.90
19385;DHT22;9828;54.122;17.974;2022-12-18T02:34:51;-4.00;99.90
19385;DHT22;9828;54.122;17.974;2022-12-18T02:40:17;-3.90;99.90
19385;DHT22;9828;54.122;17.974;2022-12-18T02:45:54;-3.90;99.90
19385;DHT22;9828;54.122;17.974;2022-12-18T02:51:26;-4.00;35.20
19385;DHT22;9828;54.122;17.974;2022-12-18T02:56:54;-4.20;99.90
19385;DHT22;9828;54.122;17.974;2022-12-18T03:02:24;-4.20;75.70
19385;DHT22;9828;54.122;17.974;2022-12-18T03:07:56;-4.30;91.60
19385;DHT22;9828;54.122;17.974;2022-12-18T03:19:08;-4.40;99.90
19385;DHT22;9828;54.122;17.974;2022-12-18T03:24:34;-4.40;99.90
19385;DHT22;9828;54.122;17.974;2022-12-18T03:30:07;-4.50;99.90
19385;DHT22;9828;54.122;17.974;2022-12-18T03:35:39;-4.50;99.90
19385;DHT22;9828;54.122;17.974;2022-12-18T03:41:24;-4.50;1.00
19385;DHT22;9828;54.122;17.974;2022-12-18T03:58:37;-4.80;1.00
19385;DHT22;9828;54.122;17.974;2022-12-18T04:04:11;-4.80;99.90
19385;DHT22;9828;54.122;17.974;2022-12-18T04:09:34;-4.80;1.00
19385;DHT22;9828;54.122;17.974;2022-12-18T04:14:57;-4.90;1.00
19385;DHT22;9828;54.122;17.974;2022-12-18T04:20:18;-4.90;1.00
19385;DHT22;9828;54.122;17.974;2022-12-18T04:25:40;-5.00;1.00
19385;DHT22;9828;54.122;17.974;2022-12-18T04:31:05;-5.00;99.90
19385;DHT22;9828;54.122;17.974;2022-12-18T04:36:27;-5.20;1.00
19385;DHT22;9828;54.122;17.974;2022-12-18T04:41:49;-5.40;1.00
19385;DHT22;9828;54.122;17.974;2022-12-18T04:47:11;-5.40;99.90
19385;DHT22;9828;54.122;17.974;2022-12-18T04:52:32;-5.50;1.00
19385;DHT22;9828;54.122;17.974;2022-12-18T04:57:53;-5.50;1.00
19385;DHT22;9828;54.122;17.974;2022-12-18T05:03:14;-5.60;1.00
19385;DHT22;9828;54.122;17.974;2022-12-18T05:08:36;-5.70;99.90
19385;DHT22;9828;54.122;17.974;2022-12-18T05:13:57;-5.80;99.90
19385;DHT22;9828;54.122;17.974;2022-12-18T05:19:18;-5.80;99.90
19385;DHT22;9828;54.122;17.974;2022-12-18T05:24:40;-5.80;1.00
19385;DHT22;9828;54.122;17.974;2022-12-18T05:30:01;-5.90;1.00
19385;DHT22;9828;54.122;17.974;2022-12-18T05:35:22;-5.90;1.00
19385;DHT22;9828;54.122;17.974;2022-12-18T05:40:43;-5.90;1.00
19385;DHT22;9828;54.122;17.974;2022-12-18T05:46:11;-6.20;1.00
19385;DHT22;9828;54.122;17.974;2022-12-18T05:51:34;-6.30;1.00
19385;DHT22;9828;54.122;17.974;2022-12-18T05:56:55;-6.40;99.90
19385;DHT22;9828;54.122;17.974;2022-12-18T06:02:16;-6.40;1.00
19385;DHT22;9828;54.122;17.974;2022-12-18T06:07:37;-6.40;99.90
19385;DHT22;9828;54.122;17.974;2022-12-18T06:12:59;-6.60;99.90
19385;DHT22;9828;54.122;17.974;2022-12-18T06:18:20;-6.70;1.00
19385;DHT22;9828;54.122;17.974;2022-12-18T06:23:41;-6.80;99.90
19385;DHT22;9828;54.122;17.974;2022-12-18T06:29:02;-6.70;1.00
19385;DHT22;9828;54.122;17.974;2022-12-18T06:34:24;-6.70;1.00
19385;DHT22;9828;54.122;17.974;2022-12-18T06:39:45;-6.90;1.00
19385;DHT22;9828;54.122;17.974;2022-12-18T06:45:07;-6.90;99.90
19385;DHT22;9828;54.122;17.974;2022-12-18T06:50:28;-7.00;1.00
19385;DHT22;9828;54.122;17.974;2022-12-18T06:55:50;-7.00;1.00
19385;DHT22;9828;54.122;17.974;2022-12-18T07:01:12;-7.10;1.00
19385;DHT22;9828;54.122;17.974;2022-12-18T07:06:33;-7.00;1.00
19385;DHT22;9828;54.122;17.974;2022-12-18T07:11:54;-6.80;1.00
19385;DHT22;9828;54.122;17.974;2022-12-18T07:17:15;-6.90;1.00
19385;DHT22;9828;54.122;17.974;2022-12-18T07:22:37;-7.00;99.90
19385;DHT22;9828;54.122;17.974;2022-12-18T07:27:58;-7.00;1.00
19385;DHT22;9828;54.122;17.974;2022-12-18T07:33:19;-6.80;99.90
19385;DHT22;9828;54.122;17.974;2022-12-18T07:38:40;-6.30;1.00
19385;DHT22;9828;54.122;17.974;2022-12-18T07:44:01;-6.20;1.00
19385;DHT22;9828;54.122;17.974;2022-12-18T07:49:23;-6.10;1.00
19385;DHT22;9828;54.122;17.974;2022-12-18T07:54:44;-6.00;1.00
19385;DHT22;9828;54.122;17.974;2022-12-18T08:00:07;-5.80;1.00
19385;DHT22;9828;54.122;17.974;2022-12-18T08:05:31;-5.80;99.90
19385;DHT22;9828;54.122;17.974;2022-12-18T08:10:52;-5.70;99.90
19385;DHT22;9828;54.122;17.974;2022-12-18T08:16:13;-5.60;1.00
19385;DHT22;9828;54.122;17.974;2022-12-18T08:21:35;-5.60;1.00
19385;DHT22;9828;54.122;17.974;2022-12-18T08:26:56;-5.60;1.00
19385;DHT22;9828;54.122;17.974;2022-12-18T08:32:32;-5.50;1.00
19385;DHT22;9828;54.122;17.974;2022-12-18T08:37:54;-5.50;1.00
19385;DHT22;9828;54.122;17.974;2022-12-18T08:43:15;-5.30;23.10
19385;DHT22;9828;54.122;17.974;2022-12-18T08:48:54;-5.10;1.00
19385;DHT22;9828;54.122;17.974;2022-12-18T08:54:16;-5.00;99.90
19385;DHT22;9828;54.122;17.974;2022-12-18T08:59:38;-4.90;99.90
19385;DHT22;9828;54.122;17.974;2022-12-18T09:04:59;-5.00;1.00
19385;DHT22;9828;54.122;17.974;2022-12-18T09:10:20;-5.00;99.90
19385;DHT22;9828;54.122;17.974;2022-12-18T09:15:47;-5.10;99.90
19385;DHT22;9828;54.122;17.974;2022-12-18T09:21:20;-5.00;99.90
19385;DHT22;9828;54.122;17.974;2022-12-18T09:26:42;-4.90;99.90
19385;DHT22;9828;54.122;17.974;2022-12-18T09:32:03;-4.70;1.00
19385;DHT22;9828;54.122;17.974;2022-12-18T09:37:25;-4.70;99.90
19385;DHT22;9828;54.122;17.974;2022-12-18T09:42:55;-4.50;99.90
19385;DHT22;9828;54.122;17.974;2022-12-18T09:48:44;-4.30;99.90
19385;DHT22;9828;54.122;17.974;2022-12-18T09:54:12;-4.30;1.00
19385;DHT22;9828;54.122;17.974;2022-12-18T09:59:38;-4.10;99.90
19385;DHT22;9828;54.122;17.974;2022-12-18T10:05:05;-4.10;1.00
19385;DHT22;9828;54.122;17.974;2022-12-18T10:16:13;-3.70;1.00
19385;DHT22;9828;54.122;17.974;2022-12-18T10:27:32;-3.40;99.90
19385;DHT22;9828;54.122;17.974;2022-12-18T10:32:53;-3.30;99.90
19385;DHT22;9828;54.122;17.974;2022-12-18T10:43:39;-3.10;15.30
19385;DHT22;9828;54.122;17.974;2022-12-18T10:49:01;-3.00;99.90
19385;DHT22;9828;54.122;17.974;2022-12-18T10:54:23;-3.00;99.90
19385;DHT22;9828;54.122;17.974;2022-12-18T10:59:55;-2.80;1.00
19385;DHT22;9828;54.122;17.974;2022-12-18T11:05:25;-2.60;99.90
19385;DHT22;9828;54.122;17.974;2022-12-18T11:10:46;-2.30;21.10
19385;DHT22;9828;54.122;17.974;2022-12-18T11:16:07;-0.60;1.00
19385;DHT22;9828;54.122;17.974;2022-12-18T11:27:05;2.00;18.50
19385;DHT22;9828;54.122;17.974;2022-12-18T11:32:39;2.60;1.00
19385;DHT22;9828;54.122;17.974;2022-12-18T11:38:28;2.40;1.00
19385;DHT22;9828;54.122;17.974;2022-12-18T11:43:58;1.50;1.00
19385;DHT22;9828;54.122;17.974;2022-12-18T11:49:31;0.70;99.90
19385;DHT22;9828;54.122;17.974;2022-12-18T11:55:05;0.40;99.90
19385;DHT22;9828;54.122;17.974;2022-12-18T12:00:31;0.40;99.90
19385;DHT22;9828;54.122;17.974;2022-12-18T12:34:19;-0.80;1.00
19385;DHT22;9828;54.122;17.974;2022-12-18T12:39:42;-1.10;1.00
19385;DHT22;9828;54.122;17.974;2022-12-18T12:45:18;-1.30;99.90
19385;DHT22;9828;54.122;17.974;2022-12-18T12:50:41;-1.40;99.90
19385;DHT22;9828;54.122;17.974;2022-12-18T12:56:03;-1.50;70.50
19385;DHT22;9828;54.122;17.974;2022-12-18T13:07:08;-1.90;99.90
19385;DHT22;9828;54.122;17.974;2022-12-18T13:12:31;-2.00;1.00
19385;DHT22;9828;54.122;17.974;2022-12-18T13:18:31;-2.10;99.90
19385;DHT22;9828;54.122;17.974;2022-12-18T13:23:53;-2.20;67.40
19385;DHT22;9828;54.122;17.974;2022-12-18T13:29:45;-2.30;99.90
19385;DHT22;9828;54.122;17.974;2022-12-18T13:46:27;-2.70;1.00
19385;DHT22;9828;54.122;17.974;2022-12-18T13:51:51;-2.80;1.00
19385;DHT22;9828;54.122;17.974;2022-12-18T13:57:30;-2.80;1.00
19385;DHT22;9828;54.122;17.974;2022-12-18T14:02:52;-2.80;1.00
19385;DHT22;9828;54.122;17.974;2022-12-18T14:08:16;-2.80;99.90
19385;DHT22;9828;54.122;17.974;2022-12-18T14:13:41;-2.90;1.00
19385;DHT22;9828;54.122;17.974;2022-12-18T14:19:02;-3.00;99.90
19385;DHT22;9828;54.122;17.974;2022-12-18T14:24:24;-3.10;99.90
19385;DHT22;9828;54.122;17.974;2022-12-18T14:29:45;-3.20;99.90
19385;DHT22;9828;54.122;17.974;2022-12-18T14:35:13;-3.30;99.90
19385;DHT22;9828;54.122;17.974;2022-12-18T14:40:34;-3.60;1.00
19385;DHT22;9828;54.122;17.974;2022-12-18T14:45:56;-3.70;1.00
19385;DHT22;9828;54.122;17.974;2022-12-18T14:51:23;-3.80;99.90
19385;DHT22;9828;54.122;17.974;2022-12-18T14:57:35;-3.90;99.90
19385;DHT22;9828;54.122;17.974;2022-12-18T15:02:29;-3.90;1.00
19385;DHT22;9828;54.122;17.974;2022-12-18T15:07:52;-4.10;1.00
19385;DHT22;9828;54.122;17.974;2022-12-18T15:13:23;-4.30;1.00
19385;DHT22;9828;54.122;17.974;2022-12-18T15:18:45;-4.40;1.00
19385;DHT22;9828;54.122;17.974;2022-12-18T15:24:17;-4.40;99.90
19385;DHT22;9828;54.122;17.974;2022-12-18T15:29:39;-4.50;1.00
19385;DHT22;9828;54.122;17.974;2022-12-18T15:35:22;-4.70;99.90
19385;DHT22;9828;54.122;17.974;2022-12-18T15:40:44;-4.80;99.90
19385;DHT22;9828;54.122;17.974;2022-12-18T15:51:37;-4.90;6.70
19385;DHT22;9828;54.122;17.974;2022-12-18T15:56:58;-4.90;99.90
19385;DHT22;9828;54.122;17.974;2022-12-18T16:02:38;-5.10;1.00
19385;DHT22;9828;54.122;17.974;2022-12-18T16:07:59;-5.20;99.90
19385;DHT22;9828;54.122;17.974;2022-12-18T16:13:20;-5.30;1.00
19385;DHT22;9828;54.122;17.974;2022-12-18T16:18:41;-5.20;99.90
19385;DHT22;9828;54.122;17.974;2022-12-18T16:24:02;-5.40;1.00
19385;DHT22;9828;54.122;17.974;2022-12-18T16:29:23;-5.60;1.00
19385;DHT22;9828;54.122;17.974;2022-12-18T16:34:48;-5.70;99.90
19385;DHT22;9828;54.122;17.974;2022-12-18T16:40:12;-5.80;1.00
19385;DHT22;9828;54.122;17.974;2022-12-18T16:45:34;-5.80;99.90
19385;DHT22;9828;54.122;17.974;2022-12-18T16:51:03;-5.80;99.90
19385;DHT22;9828;54.122;17.974;2022-12-18T16:56:25;-5.80;1.00
19385;DHT22;9828;54.122;17.974;2022-12-18T17:01:46;-5.90;99.90
19385;DHT22;9828;54.122;17.974;2022-12-18T17:07:09;-5.90;15.80
19385;DHT22;9828;54.122;17.974;2022-12-18T17:12:30;-6.20;1.00
19385;DHT22;9828;54.122;17.974;2022-12-18T17:17:51;-6.30;99.90
19385;DHT22;9828;54.122;17.974;2022-12-18T17:23:12;-6.20;1.00
19385;DHT22;9828;54.122;17.974;2022-12-18T17:28:34;-6.20;1.00
19385;DHT22;9828;54.122;17.974;2022-12-18T17:33:56;-6.20;1.00
19385;DHT22;9828;54.122;17.974;2022-12-18T17:39:19;-6.00;1.00
19385;DHT22;9828;54.122;17.974;2022-12-18T17:44:40;-6.00;1.00
19385;DHT22;9828;54.122;17.974;2022-12-18T17:50:02;-5.90;1.00
19385;DHT22;9828;54.122;17.974;2022-12-18T17:55:24;-5.80;1.00
19385;DHT22;9828;54.122;17.974;2022-12-18T18:00:46;-5.80;99.90
19385;DHT22;9828;54.122;17.974;2022-12-18T18:06:07;-5.70;1.00
19385;DHT22;9828;54.122;17.974;2022-12-18T18:11:28;-5.70;13.00
19385;DHT22;9828;54.122;17.974;2022-12-18T18:17:08;-5.70;44.90
19385;DHT22;9828;54.122;17.974;2022-12-18T18:22:29;-5.60;99.90
19385;DHT22;9828;54.122;17.974;2022-12-18T18:27:51;-5.70;99.90
19385;DHT22;9828;54.122;17.974;2022-12-18T18:33:12;-5.70;99.90
19385;DHT22;9828;54.122;17.974;2022-12-18T18:38:33;-5.70;99.90
19385;DHT22;9828;54.122;17.974;2022-12-18T18:43:56;-5.50;99.90
19385;DHT22;9828;54.122;17.974;2022-12-18T18:49:17;-5.50;99.90
19385;DHT22;9828;54.122;17.974;2022-12-18T18:54:38;-5.60;99.90
19385;DHT22;9828;54.122;17.974;2022-12-18T19:00:08;-5.60;1.00
19385;DHT22;9828;54.122;17.974;2022-12-18T19:05:32;-5.50;99.90
19385;DHT22;9828;54.122;17.974;2022-12-18T19:10:56;-5.40;99.90
19385;DHT22;9828;54.122;17.974;2022-12-18T19:16:17;-5.40;99.90
19385;DHT22;9828;54.122;17.974;2022-12-18T19:21:39;-5.40;99.90
19385;DHT22;9828;54.122;17.974;2022-12-18T19:27:00;-5.40;99.90
19385;DHT22;9828;54.122;17.974;2022-12-18T19:32:21;-5.50;1.00
19385;DHT22;9828;54.122;17.974;2022-12-18T19:37:43;-5.40;1.00
19385;DHT22;9828;54.122;17.974;2022-12-18T19:43:04;-5.50;1.00
19385;DHT22;9828;54.122;17.974;2022-12-18T19:48:26;-5.50;1.00
19385;DHT22;9828;54.122;17.974;2022-12-18T19:53:47;-5.40;1.00
19385;DHT22;9828;54.122;17.974;2022-12-18T19:59:10;-5.30;1.00
19385;DHT22;9828;54.122;17.974;2022-12-18T20:04:31;-5.30;99.90
19385;DHT22;9828;54.122;17.974;2022-12-18T20:09:52;-5.40;1.00
19385;DHT22;9828;54.122;17.974;2022-12-18T20:15:18;-5.30;1.00
19385;DHT22;9828;54.122;17.974;2022-12-18T20:20:39;-5.20;1.00
19385;DHT22;9828;54.122;17.974;2022-12-18T20:26:00;-5.20;1.00
19385;DHT22;9828;54.122;17.974;2022-12-18T20:31:22;-5.10;1.00
19385;DHT22;9828;54.122;17.974;2022-12-18T20:36:43;-5.10;1.00
19385;DHT22;9828;54.122;17.974;2022-12-18T20:42:04;-5.10;1.00
19385;DHT22;9828;54.122;17.974;2022-12-18T20:47:25;-5.10;1.00
19385;DHT22;9828;54.122;17.974;2022-12-18T20:52:47;-5.00;1.00
19385;DHT22;9828;54.122;17.974;2022-12-18T20:58:07;-5.00;99.90
19385;DHT22;9828;54.122;17.974;2022-12-18T21:03:29;-5.00;1.00
19385;DHT22;9828;54.122;17.974;2022-12-18T21:08:50;-5.00;99.90
19385;DHT22;9828;54.122;17.974;2022-12-18T21:19:34;-5.10;1.00
19385;DHT22;9828;54.122;17.974;2022-12-18T21:24:54;-5.00;1.00
19385;DHT22;9828;54.122;17.974;2022-12-18T21:30:16;-5.20;1.00
19385;DHT22;9828;54.122;17.974;2022-12-18T21:35:37;-5.10;1.00
19385;DHT22;9828;54.122;17.974;2022-12-18T21:40:58;-5.00;1.00
19385;DHT22;9828;54.122;17.974;2022-12-18T21:46:20;-5.10;99.90
19385;DHT22;9828;54.122;17.974;2022-12-18T21:51:41;-5.10;1.00
19385;DHT22;9828;54.122;17.974;2022-12-18T21:57:04;-5.10;1.00
19385;DHT22;9828;54.122;17.974;2022-12-18T22:02:25;-5.00;99.90
19385;DHT22;9828;54.122;17.974;2022-12-18T22:07:47;-5.00;99.90
19385;DHT22;9828;54.122;17.974;2022-12-18T22:13:08;-5.10;1.00
19385;DHT22;9828;54.122;17.974;2022-12-18T22:18:29;-5.10;1.00
19385;DHT22;9828;54.122;17.974;2022-12-18T22:24:01;-5.20;1.00
19385;DHT22;9828;54.122;17.974;2022-12-18T22:29:24;-5.10;1.00
19385;DHT22;9828;54.122;17.974;2022-12-18T22:35:04;-5.20;1.00
19385;DHT22;9828;54.122;17.974;2022-12-18T22:40:29;-5.20;1.00
19385;DHT22;9828;54.122;17.974;2022-12-18T22:45:50;-5.30;1.00
19385;DHT22;9828;54.122;17.974;2022-12-18T22:51:15;-5.30;1.00
19385;DHT22;9828;54.122;17.974;2022-12-18T22:56:37;-5.20;99.90
19385;DHT22;9828;54.122;17.974;2022-12-18T23:01:59;-5.30;99.90
19385;DHT22;9828;54.122;17.974;2022-12-18T23:07:20;-5.30;99.90
19385;DHT22;9828;54.122;17.974;2022-12-18T23:12:41;-5.50;1.00
19385;DHT22;9828;54.122;17.974;2022-12-18T23:18:03;-5.50;1.00
19385;DHT22;9828;54.122;17.974;2022-12-18T23:23:24;-5.60;1.00
19385;DHT22;9828;54.122;17.974;2022-12-18T23:28:46;-5.50;99.90
19385;DHT22;9828;54.122;17.974;2022-12-18T23:34:09;-5.40;99.90
19385;DHT22;9828;54.122;17.974;2022-12-18T23:39:31;-5.50;99.90
19385;DHT22;9828;54.122;17.974;2022-12-18T23:44:52;-5.60;99.90
19385;DHT22;9828;54.122;17.974;2022-12-18T23:50:14;-5.50;99.90
19385;DHT22;9828;54.122;17.974;2022-12-18T23:55:40;-5.70;99.90
